This is the latest recevied weather packets stored in our database for station/object WW3TRG. If no packets are shown the sender has not sent any weather packets the latest 1 day(s).
| Time | Temp. | Humidity | Pressure | Rain* | Wind** | Luminosity | Snow |
|---|---|---|---|---|---|---|---|
| 1777988460 | 20.56° C | 70% | 1010.4 hPa | 0 mm | 1.79 m/s, 152° | 467 W/m² | - |
| 1777988156 | 20.56° C | 66% | 1010.4 hPa | 0 mm | 0.45 m/s, 198° | 472 W/m² | - |
| 1777987852 | 20° C | 67% | 1010.3 hPa | 0 mm | 1.34 m/s, 173° | 401 W/m² | - |
| 1777987549 | 20° C | 70% | 1010.6 hPa | 0 mm | 0.45 m/s, 106° | 455 W/m² | - |
| 1777987247 | 18.89° C | 76% | 1010.4 hPa | 0 mm | 0.45 m/s, 262° | 380 W/m² | - |
| 1777986943 | 18.33° C | 78% | 1010.6 hPa | 0 mm | 0.89 m/s, 175° | 268 W/m² | - |
| 1777986641 | 18.33° C | 74% | 1010.6 hPa | 0 mm | 0.89 m/s, 159° | 369 W/m² | - |
| 1777986339 | 18.33° C | 78% | 1010.5 hPa | 0 mm | 0 m/s | 307 W/m² | - |
| 1777986037 | 18.33° C | 79% | 1010.4 hPa | 0 mm | 0.89 m/s, 196° | 319 W/m² | - |
| 1777985733 | 19.44° C | 77% | 1010.2 hPa | 0 mm | 0 m/s | 327 W/m² | - |
| 1777985430 | 18.33° C | 77% | 1010.2 hPa | 0 mm | 0 m/s | 290 W/m² | - |
| 1777985127 | 18.33° C | 80% | 1010.3 hPa | 0 mm | 0 m/s | 257 W/m² | - |
| 1777984823 | 16.67° C | 84% | 1010.5 hPa | 0 mm | 0 m/s | 203 W/m² | - |
| 1777984520 | 16.67° C | 83% | 1010.2 hPa | 0 mm | 0 m/s | 226 W/m² | - |
| 1777984216 | 17.22° C | 80% | 1010.2 hPa | 0 mm | 0 m/s | 276 W/m² | - |
| 1777983913 | 17.78° C | 78% | 1010 hPa | 0 mm | 0 m/s | 210 W/m² | - |
| 1777983610 | 17.22° C | 82% | 1010.2 hPa | 0 mm | 0 m/s | 221 W/m² | - |
| 1777983306 | 16.11° C | 81% | 1010.4 hPa | 0 mm | 0 m/s | 214 W/m² | - |
| 1777983003 | 16.11° C | 85% | 1010.3 hPa | 0 mm | 0 m/s | 191 W/m² | - |
| 1777982700 | 15° C | 86% | 1010.1 hPa | 0 mm | 0.89 m/s, 131° | 185 W/m² | - |
| 1777982398 | 15.56° C | 88% | 1010.3 hPa | 0 mm | 0.89 m/s, 75° | 161 W/m² | - |
| 1777982095 | 13.89° C | 94% | 1010.2 hPa | 0 mm | 0 m/s | 133 W/m² | - |
| 1777981793 | 13.33° C | 97% | 1010.2 hPa | 0 mm | 0.45 m/s, 90° | 105 W/m² | - |
| 1777981489 | 12.78° C | 99% | 1010.3 hPa | 0 mm | 0.45 m/s, 106° | 125 W/m² | - |
| 1777981186 | 13.33° C | 99% | 1010.3 hPa | 0 mm | 0.45 m/s, 97° | 91 W/m² | - |
* Rain latest hour (hover to see other rain measurements)
** Current wind speed in m/s (hover to see current wind gust speed)